sensor_id;sensor_type;location;lat;lon;timestamp;temperature;humidity
2459;DHT22;1241;50.920;6.936;2022-11-15T00:01:58;11.30;99.90
2459;DHT22;1241;50.920;6.936;2022-11-15T00:04:42;11.20;99.90
2459;DHT22;1241;50.920;6.936;2022-11-15T00:07:26;11.20;99.90
2459;DHT22;1241;50.920;6.936;2022-11-15T00:10:11;11.30;99.90
2459;DHT22;1241;50.920;6.936;2022-11-15T00:12:55;11.20;99.90
2459;DHT22;1241;50.920;6.936;2022-11-15T00:15:40;11.20;99.90
2459;DHT22;1241;50.920;6.936;2022-11-15T00:18:25;11.20;99.90
2459;DHT22;1241;50.920;6.936;2022-11-15T00:21:12;11.30;99.90
2459;DHT22;1241;50.920;6.936;2022-11-15T00:23:58;11.30;99.90
2459;DHT22;1241;50.920;6.936;2022-11-15T00:26:42;11.30;99.90
2459;DHT22;1241;50.920;6.936;2022-11-15T00:29:26;11.40;99.90
2459;DHT22;1241;50.920;6.936;2022-11-15T00:32:10;11.50;99.90
2459;DHT22;1241;50.920;6.936;2022-11-15T00:34:54;11.50;99.90
2459;DHT22;1241;50.920;6.936;2022-11-15T00:37:38;11.60;99.90
2459;DHT22;1241;50.920;6.936;2022-11-15T00:40:23;11.50;99.90
2459;DHT22;1241;50.920;6.936;2022-11-15T00:43:07;11.60;99.90
2459;DHT22;1241;50.920;6.936;2022-11-15T00:45:51;11.60;99.90
2459;DHT22;1241;50.920;6.936;2022-11-15T00:48:36;11.60;99.90
2459;DHT22;1241;50.920;6.936;2022-11-15T00:51:23;11.50;99.90
2459;DHT22;1241;50.920;6.936;2022-11-15T00:54:07;11.50;99.90
2459;DHT22;1241;50.920;6.936;2022-11-15T00:56:51;11.60;99.90
2459;DHT22;1241;50.920;6.936;2022-11-15T00:59:35;11.70;99.90
2459;DHT22;1241;50.920;6.936;2022-11-15T01:02:20;11.70;99.90
2459;DHT22;1241;50.920;6.936;2022-11-15T01:05:04;11.80;99.90
2459;DHT22;1241;50.920;6.936;2022-11-15T01:07:53;11.80;99.90
2459;DHT22;1241;50.920;6.936;2022-11-15T01:10:38;12.00;99.90
2459;DHT22;1241;50.920;6.936;2022-11-15T01:13:22;11.90;99.90
2459;DHT22;1241;50.920;6.936;2022-11-15T01:16:08;12.00;99.90
2459;DHT22;1241;50.920;6.936;2022-11-15T01:18:53;12.00;99.90
2459;DHT22;1241;50.920;6.936;2022-11-15T01:21:37;12.00;99.90
2459;DHT22;1241;50.920;6.936;2022-11-15T01:24:21;12.10;99.90
2459;DHT22;1241;50.920;6.936;2022-11-15T01:27:05;12.10;99.90
2459;DHT22;1241;50.920;6.936;2022-11-15T01:29:49;12.20;99.90
2459;DHT22;1241;50.920;6.936;2022-11-15T01:32:34;12.20;99.90
2459;DHT22;1241;50.920;6.936;2022-11-15T01:35:18;12.20;99.90
2459;DHT22;1241;50.920;6.936;2022-11-15T01:38:02;12.20;99.90
2459;DHT22;1241;50.920;6.936;2022-11-15T01:40:47;12.20;99.90
2459;DHT22;1241;50.920;6.936;2022-11-15T01:43:34;12.40;99.90
2459;DHT22;1241;50.920;6.936;2022-11-15T01:46:33;12.50;99.90
2459;DHT22;1241;50.920;6.936;2022-11-15T01:49:21;12.50;99.90
2459;DHT22;1241;50.920;6.936;2022-11-15T01:52:11;12.50;99.90
2459;DHT22;1241;50.920;6.936;2022-11-15T01:55:17;12.60;99.90
2459;DHT22;1241;50.920;6.936;2022-11-15T01:58:04;12.60;99.90
2459;DHT22;1241;50.920;6.936;2022-11-15T02:00:50;12.60;99.90
2459;DHT22;1241;50.920;6.936;2022-11-15T02:04:04;12.70;99.90
2459;DHT22;1241;50.920;6.936;2022-11-15T02:06:47;12.70;99.90
2459;DHT22;1241;50.920;6.936;2022-11-15T02:09:32;12.70;99.90
2459;DHT22;1241;50.920;6.936;2022-11-15T02:12:19;12.70;99.90
2459;DHT22;1241;50.920;6.936;2022-11-15T02:15:04;12.60;99.90
2459;DHT22;1241;50.920;6.936;2022-11-15T02:36:01;12.40;99.90
2459;DHT22;1241;50.920;6.936;2022-11-15T02:38:54;12.50;99.90
2459;DHT22;1241;50.920;6.936;2022-11-15T02:41:54;12.60;99.90
2459;DHT22;1241;50.920;6.936;2022-11-15T02:44:45;12.60;99.90
2459;DHT22;1241;50.920;6.936;2022-11-15T02:47:34;12.50;99.90
2459;DHT22;1241;50.920;6.936;2022-11-15T02:50:23;12.40;99.90
2459;DHT22;1241;50.920;6.936;2022-11-15T02:53:09;12.40;99.90
2459;DHT22;1241;50.920;6.936;2022-11-15T02:55:54;12.40;99.90
2459;DHT22;1241;50.920;6.936;2022-11-15T03:02:09;12.30;99.90
2459;DHT22;1241;50.920;6.936;2022-11-15T03:08:18;12.40;99.90
2459;DHT22;1241;50.920;6.936;2022-11-15T03:11:23;12.40;99.90
2459;DHT22;1241;50.920;6.936;2022-11-15T03:14:27;12.40;99.90
2459;DHT22;1241;50.920;6.936;2022-11-15T03:17:19;12.40;99.90
2459;DHT22;1241;50.920;6.936;2022-11-15T03:20:08;12.50;99.90
2459;DHT22;1241;50.920;6.936;2022-11-15T03:22:54;12.60;99.90
2459;DHT22;1241;50.920;6.936;2022-11-15T03:25:45;12.60;99.90
2459;DHT22;1241;50.920;6.936;2022-11-15T03:28:53;12.60;99.90
2459;DHT22;1241;50.920;6.936;2022-11-15T03:31:42;12.60;99.90
2459;DHT22;1241;50.920;6.936;2022-11-15T03:34:44;12.70;99.90
2459;DHT22;1241;50.920;6.936;2022-11-15T03:40:45;12.70;99.90
2459;DHT22;1241;50.920;6.936;2022-11-15T03:43:52;12.70;99.90
2459;DHT22;1241;50.920;6.936;2022-11-15T03:46:49;12.60;99.90
2459;DHT22;1241;50.920;6.936;2022-11-15T03:49:40;12.70;99.90
2459;DHT22;1241;50.920;6.936;2022-11-15T03:52:31;12.60;99.90
2459;DHT22;1241;50.920;6.936;2022-11-15T03:55:20;12.60;99.90
2459;DHT22;1241;50.920;6.936;2022-11-15T03:58:05;12.70;99.90
2459;DHT22;1241;50.920;6.936;2022-11-15T04:00:49;12.80;99.90
2459;DHT22;1241;50.920;6.936;2022-11-15T04:03:33;12.70;99.90
2459;DHT22;1241;50.920;6.936;2022-11-15T04:06:17;12.70;99.90
2459;DHT22;1241;50.920;6.936;2022-11-15T04:09:02;12.70;99.90
2459;DHT22;1241;50.920;6.936;2022-11-15T04:11:46;12.80;99.90
2459;DHT22;1241;50.920;6.936;2022-11-15T04:14:30;12.70;99.90
2459;DHT22;1241;50.920;6.936;2022-11-15T04:17:14;12.70;99.90
2459;DHT22;1241;50.920;6.936;2022-11-15T04:19:58;12.70;99.90
2459;DHT22;1241;50.920;6.936;2022-11-15T04:23:04;12.70;99.90
2459;DHT22;1241;50.920;6.936;2022-11-15T04:26:11;12.60;99.90
2459;DHT22;1241;50.920;6.936;2022-11-15T04:28:55;12.60;99.90
2459;DHT22;1241;50.920;6.936;2022-11-15T04:31:58;12.60;99.90
2459;DHT22;1241;50.920;6.936;2022-11-15T04:34:42;12.60;99.90
2459;DHT22;1241;50.920;6.936;2022-11-15T04:37:26;12.60;99.90
2459;DHT22;1241;50.920;6.936;2022-11-15T04:40:10;12.70;99.90
2459;DHT22;1241;50.920;6.936;2022-11-15T04:42:55;12.60;99.90
2459;DHT22;1241;50.920;6.936;2022-11-15T04:45:39;12.70;99.90
2459;DHT22;1241;50.920;6.936;2022-11-15T04:48:23;12.70;99.90
2459;DHT22;1241;50.920;6.936;2022-11-15T04:51:07;12.70;99.90
2459;DHT22;1241;50.920;6.936;2022-11-15T04:53:52;12.70;99.90
2459;DHT22;1241;50.920;6.936;2022-11-15T04:56:36;12.70;99.90
2459;DHT22;1241;50.920;6.936;2022-11-15T04:59:21;12.70;99.90
2459;DHT22;1241;50.920;6.936;2022-11-15T05:02:05;12.80;99.90
2459;DHT22;1241;50.920;6.936;2022-11-15T05:04:49;12.80;99.90
2459;DHT22;1241;50.920;6.936;2022-11-15T05:07:33;12.70;99.90
2459;DHT22;1241;50.920;6.936;2022-11-15T05:10:17;12.60;99.90
2459;DHT22;1241;50.920;6.936;2022-11-15T05:13:01;12.60;99.90
2459;DHT22;1241;50.920;6.936;2022-11-15T05:15:45;12.50;99.90
2459;DHT22;1241;50.920;6.936;2022-11-15T05:18:30;12.50;99.90
2459;DHT22;1241;50.920;6.936;2022-11-15T05:21:14;12.40;99.90
2459;DHT22;1241;50.920;6.936;2022-11-15T05:23:59;12.40;99.90
2459;DHT22;1241;50.920;6.936;2022-11-15T05:26:43;12.40;99.90
2459;DHT22;1241;50.920;6.936;2022-11-15T05:29:27;12.40;99.90
2459;DHT22;1241;50.920;6.936;2022-11-15T05:32:12;12.40;99.90
2459;DHT22;1241;50.920;6.936;2022-11-15T05:34:56;12.40;99.90
2459;DHT22;1241;50.920;6.936;2022-11-15T05:37:41;12.40;99.90
2459;DHT22;1241;50.920;6.936;2022-11-15T05:40:26;12.30;99.90
2459;DHT22;1241;50.920;6.936;2022-11-15T05:43:11;12.30;99.90
2459;DHT22;1241;50.920;6.936;2022-11-15T05:45:55;12.20;99.90
2459;DHT22;1241;50.920;6.936;2022-11-15T05:48:43;12.10;99.90
2459;DHT22;1241;50.920;6.936;2022-11-15T05:51:29;12.00;99.90
2459;DHT22;1241;50.920;6.936;2022-11-15T05:54:14;11.90;99.90
2459;DHT22;1241;50.920;6.936;2022-11-15T05:57:00;11.80;99.90
2459;DHT22;1241;50.920;6.936;2022-11-15T05:59:44;11.80;99.90
2459;DHT22;1241;50.920;6.936;2022-11-15T06:02:28;11.70;99.90
2459;DHT22;1241;50.920;6.936;2022-11-15T06:05:12;11.60;99.90
2459;DHT22;1241;50.920;6.936;2022-11-15T06:07:59;11.60;99.90
2459;DHT22;1241;50.920;6.936;2022-11-15T06:10:43;11.50;99.90
2459;DHT22;1241;50.920;6.936;2022-11-15T06:13:27;11.50;99.90
2459;DHT22;1241;50.920;6.936;2022-11-15T06:16:11;11.40;99.90
2459;DHT22;1241;50.920;6.936;2022-11-15T06:18:55;11.40;99.90
2459;DHT22;1241;50.920;6.936;2022-11-15T06:21:39;11.30;99.90
2459;DHT22;1241;50.920;6.936;2022-11-15T06:24:23;11.30;99.90
2459;DHT22;1241;50.920;6.936;2022-11-15T06:27:08;11.30;99.90
2459;DHT22;1241;50.920;6.936;2022-11-15T06:29:52;11.20;99.90
2459;DHT22;1241;50.920;6.936;2022-11-15T06:32:36;11.20;99.90
2459;DHT22;1241;50.920;6.936;2022-11-15T06:35:20;11.20;99.90
2459;DHT22;1241;50.920;6.936;2022-11-15T06:38:09;11.10;99.90
2459;DHT22;1241;50.920;6.936;2022-11-15T06:40:53;11.10;99.90
2459;DHT22;1241;50.920;6.936;2022-11-15T06:43:38;11.10;99.90
2459;DHT22;1241;50.920;6.936;2022-11-15T06:46:22;11.10;99.90
2459;DHT22;1241;50.920;6.936;2022-11-15T06:49:06;11.10;99.90
2459;DHT22;1241;50.920;6.936;2022-11-15T06:51:50;11.10;99.90
2459;DHT22;1241;50.920;6.936;2022-11-15T06:54:34;11.00;99.90
2459;DHT22;1241;50.920;6.936;2022-11-15T06:57:18;11.00;99.90
2459;DHT22;1241;50.920;6.936;2022-11-15T07:00:04;11.00;99.90
2459;DHT22;1241;50.920;6.936;2022-11-15T07:02:49;11.00;99.90
2459;DHT22;1241;50.920;6.936;2022-11-15T07:05:33;11.00;99.90
2459;DHT22;1241;50.920;6.936;2022-11-15T07:08:21;10.90;99.90
2459;DHT22;1241;50.920;6.936;2022-11-15T07:11:07;11.00;99.90
2459;DHT22;1241;50.920;6.936;2022-11-15T07:13:52;11.00;99.90
2459;DHT22;1241;50.920;6.936;2022-11-15T07:16:37;11.00;99.90
2459;DHT22;1241;50.920;6.936;2022-11-15T07:19:21;11.00;99.90
2459;DHT22;1241;50.920;6.936;2022-11-15T07:22:05;11.00;99.90
2459;DHT22;1241;50.920;6.936;2022-11-15T07:24:49;11.00;99.90
2459;DHT22;1241;50.920;6.936;2022-11-15T07:27:34;11.00;99.90
2459;DHT22;1241;50.920;6.936;2022-11-15T07:30:18;10.90;99.90
2459;DHT22;1241;50.920;6.936;2022-11-15T07:33:02;11.00;99.90
2459;DHT22;1241;50.920;6.936;2022-11-15T07:35:47;11.00;99.90
2459;DHT22;1241;50.920;6.936;2022-11-15T07:38:34;11.10;99.90
2459;DHT22;1241;50.920;6.936;2022-11-15T07:41:19;11.10;99.90
2459;DHT22;1241;50.920;6.936;2022-11-15T07:44:03;11.10;99.90
2459;DHT22;1241;50.920;6.936;2022-11-15T07:46:48;11.10;99.90
2459;DHT22;1241;50.920;6.936;2022-11-15T07:49:32;11.20;99.90
2459;DHT22;1241;50.920;6.936;2022-11-15T07:52:16;11.30;99.90
2459;DHT22;1241;50.920;6.936;2022-11-15T07:55:00;11.40;99.90
2459;DHT22;1241;50.920;6.936;2022-11-15T07:57:44;11.40;99.90
2459;DHT22;1241;50.920;6.936;2022-11-15T08:00:28;11.50;99.90
2459;DHT22;1241;50.920;6.936;2022-11-15T08:03:16;11.60;99.90
2459;DHT22;1241;50.920;6.936;2022-11-15T08:06:00;11.60;99.90
2459;DHT22;1241;50.920;6.936;2022-11-15T08:08:46;11.70;99.90
2459;DHT22;1241;50.920;6.936;2022-11-15T08:11:31;11.80;99.90
2459;DHT22;1241;50.920;6.936;2022-11-15T08:14:15;11.80;99.90
2459;DHT22;1241;50.920;6.936;2022-11-15T08:16:59;11.80;99.90
2459;DHT22;1241;50.920;6.936;2022-11-15T08:19:43;11.90;99.90
2459;DHT22;1241;50.920;6.936;2022-11-15T08:22:27;12.00;99.90
2459;DHT22;1241;50.920;6.936;2022-11-15T08:25:11;12.10;99.90
2459;DHT22;1241;50.920;6.936;2022-11-15T08:27:57;12.10;99.90
2459;DHT22;1241;50.920;6.936;2022-11-15T08:30:42;12.20;99.90
2459;DHT22;1241;50.920;6.936;2022-11-15T08:33:27;12.20;99.90
2459;DHT22;1241;50.920;6.936;2022-11-15T08:36:15;12.30;99.90
2459;DHT22;1241;50.920;6.936;2022-11-15T08:39:00;12.30;99.90
2459;DHT22;1241;50.920;6.936;2022-11-15T08:41:44;12.40;99.90
2459;DHT22;1241;50.920;6.936;2022-11-15T08:44:28;12.50;99.90
2459;DHT22;1241;50.920;6.936;2022-11-15T08:47:12;12.50;99.90
2459;DHT22;1241;50.920;6.936;2022-11-15T08:49:57;12.50;99.90
2459;DHT22;1241;50.920;6.936;2022-11-15T08:52:41;12.70;99.90
2459;DHT22;1241;50.920;6.936;2022-11-15T08:55:25;12.80;99.90
2459;DHT22;1241;50.920;6.936;2022-11-15T08:58:09;12.90;99.90
2459;DHT22;1241;50.920;6.936;2022-11-15T09:00:54;13.00;99.90
2459;DHT22;1241;50.920;6.936;2022-11-15T09:03:40;13.10;99.90
2459;DHT22;1241;50.920;6.936;2022-11-15T09:06:24;13.20;99.90
2459;DHT22;1241;50.920;6.936;2022-11-15T09:09:08;13.20;99.90
2459;DHT22;1241;50.920;6.936;2022-11-15T09:11:52;13.30;99.90
2459;DHT22;1241;50.920;6.936;2022-11-15T09:14:36;13.30;99.90
2459;DHT22;1241;50.920;6.936;2022-11-15T09:17:21;13.40;99.90
2459;DHT22;1241;50.920;6.936;2022-11-15T09:20:06;13.40;99.90
2459;DHT22;1241;50.920;6.936;2022-11-15T09:22:50;13.50;99.90
2459;DHT22;1241;50.920;6.936;2022-11-15T09:25:34;13.50;99.90
2459;DHT22;1241;50.920;6.936;2022-11-15T09:28:19;13.50;99.90
2459;DHT22;1241;50.920;6.936;2022-11-15T09:31:05;13.60;99.90
2459;DHT22;1241;50.920;6.936;2022-11-15T09:33:49;13.70;99.90
2459;DHT22;1241;50.920;6.936;2022-11-15T09:36:33;13.60;99.90
2459;DHT22;1241;50.920;6.936;2022-11-15T09:39:18;13.60;99.90
2459;DHT22;1241;50.920;6.936;2022-11-15T09:45:18;13.60;99.90
2459;DHT22;1241;50.920;6.936;2022-11-15T09:51:12;13.60;99.90
2459;DHT22;1241;50.920;6.936;2022-11-15T09:54:09;13.70;99.90
2459;DHT22;1241;50.920;6.936;2022-11-15T09:56:40;13.60;99.90
2459;DHT22;1241;50.920;6.936;2022-11-15T10:04:49;13.70;99.90
2459;DHT22;1241;50.920;6.936;2022-11-15T10:07:21;13.70;99.90
2459;DHT22;1241;50.920;6.936;2022-11-15T10:09:55;13.80;99.90
2459;DHT22;1241;50.920;6.936;2022-11-15T10:12:23;13.80;99.90
2459;DHT22;1241;50.920;6.936;2022-11-15T10:15:09;13.80;99.90
2459;DHT22;1241;50.920;6.936;2022-11-15T10:17:51;13.90;99.90
2459;DHT22;1241;50.920;6.936;2022-11-15T10:20:23;13.90;99.90
2459;DHT22;1241;50.920;6.936;2022-11-15T10:22:58;14.00;99.90
2459;DHT22;1241;50.920;6.936;2022-11-15T10:25:29;14.10;99.90
2459;DHT22;1241;50.920;6.936;2022-11-15T10:28:06;14.10;99.90
2459;DHT22;1241;50.920;6.936;2022-11-15T10:30:40;14.10;99.90
2459;DHT22;1241;50.920;6.936;2022-11-15T10:33:35;14.10;99.90
2459;DHT22;1241;50.920;6.936;2022-11-15T10:46:30;14.20;99.90
2459;DHT22;1241;50.920;6.936;2022-11-15T10:51:51;14.30;99.90
2459;DHT22;1241;50.920;6.936;2022-11-15T10:54:27;14.30;99.90
2459;DHT22;1241;50.920;6.936;2022-11-15T10:56:59;14.20;99.90
2459;DHT22;1241;50.920;6.936;2022-11-15T10:59:31;14.20;99.90
2459;DHT22;1241;50.920;6.936;2022-11-15T11:01:57;14.20;99.90
2459;DHT22;1241;50.920;6.936;2022-11-15T11:04:23;14.30;99.90
2459;DHT22;1241;50.920;6.936;2022-11-15T11:06:59;14.40;99.90
2459;DHT22;1241;50.920;6.936;2022-11-15T11:09:38;14.40;99.90
2459;DHT22;1241;50.920;6.936;2022-11-15T11:12:10;14.30;99.90
2459;DHT22;1241;50.920;6.936;2022-11-15T11:14:38;14.40;99.90
2459;DHT22;1241;50.920;6.936;2022-11-15T11:20:23;14.50;99.90
2459;DHT22;1241;50.920;6.936;2022-11-15T11:28:42;14.50;99.90
2459;DHT22;1241;50.920;6.936;2022-11-15T11:31:35;14.50;99.90
2459;DHT22;1241;50.920;6.936;2022-11-15T11:50:34;14.50;99.90
2459;DHT22;1241;50.920;6.936;2022-11-15T11:53:34;14.50;99.90
2459;DHT22;1241;50.920;6.936;2022-11-15T11:56:19;14.60;99.90
2459;DHT22;1241;50.920;6.936;2022-11-15T11:58:48;14.70;99.90
2459;DHT22;1241;50.920;6.936;2022-11-15T12:04:08;14.80;99.90
2459;DHT22;1241;50.920;6.936;2022-11-15T12:07:01;14.80;99.90
2459;DHT22;1241;50.920;6.936;2022-11-15T12:09:44;15.00;99.90
2459;DHT22;1241;50.920;6.936;2022-11-15T12:15:01;15.10;99.90
2459;DHT22;1241;50.920;6.936;2022-11-15T12:17:32;15.10;99.90
2459;DHT22;1241;50.920;6.936;2022-11-15T12:20:03;15.20;99.90
2459;DHT22;1241;50.920;6.936;2022-11-15T12:25:08;15.30;99.90
2459;DHT22;1241;50.920;6.936;2022-11-15T12:27:42;15.40;99.90
2459;DHT22;1241;50.920;6.936;2022-11-15T12:30:15;15.50;99.90
2459;DHT22;1241;50.920;6.936;2022-11-15T12:32:58;15.60;99.90
2459;DHT22;1241;50.920;6.936;2022-11-15T12:38:00;15.80;99.90
2459;DHT22;1241;50.920;6.936;2022-11-15T12:40:28;15.80;99.90
2459;DHT22;1241;50.920;6.936;2022-11-15T12:45:32;15.60;99.90
2459;DHT22;1241;50.920;6.936;2022-11-15T12:58:56;16.00;99.90
2459;DHT22;1241;50.920;6.936;2022-11-15T13:12:08;15.80;99.90
2459;DHT22;1241;50.920;6.936;2022-11-15T13:19:43;15.80;99.90
2459;DHT22;1241;50.920;6.936;2022-11-15T13:22:10;15.80;99.90
2459;DHT22;1241;50.920;6.936;2022-11-15T13:24:55;15.80;99.90
2459;DHT22;1241;50.920;6.936;2022-11-15T13:27:21;15.80;99.90
2459;DHT22;1241;50.920;6.936;2022-11-15T13:29:47;15.80;99.90
2459;DHT22;1241;50.920;6.936;2022-11-15T13:32:14;15.90;99.90
2459;DHT22;1241;50.920;6.936;2022-11-15T13:34:44;15.80;99.90
2459;DHT22;1241;50.920;6.936;2022-11-15T13:39:48;15.70;99.90
2459;DHT22;1241;50.920;6.936;2022-11-15T13:42:19;15.60;99.90
2459;DHT22;1241;50.920;6.936;2022-11-15T13:45:00;15.40;99.90
2459;DHT22;1241;50.920;6.936;2022-11-15T13:47:27;15.20;99.90
2459;DHT22;1241;50.920;6.936;2022-11-15T13:49:53;15.10;99.90
2459;DHT22;1241;50.920;6.936;2022-11-15T13:52:22;15.00;99.90
2459;DHT22;1241;50.920;6.936;2022-11-15T13:57:51;14.90;99.90
2459;DHT22;1241;50.920;6.936;2022-11-15T14:00:39;14.90;99.90
2459;DHT22;1241;50.920;6.936;2022-11-15T14:03:26;14.90;99.90
2459;DHT22;1241;50.920;6.936;2022-11-15T14:06:14;15.10;99.90
2459;DHT22;1241;50.920;6.936;2022-11-15T14:11:30;15.10;99.90
2459;DHT22;1241;50.920;6.936;2022-11-15T14:16:39;15.20;99.90
2459;DHT22;1241;50.920;6.936;2022-11-15T14:19:06;15.10;99.90
2459;DHT22;1241;50.920;6.936;2022-11-15T14:21:34;15.00;99.90
2459;DHT22;1241;50.920;6.936;2022-11-15T14:24:18;14.90;99.90
2459;DHT22;1241;50.920;6.936;2022-11-15T14:26:44;14.80;99.90
2459;DHT22;1241;50.920;6.936;2022-11-15T14:29:23;14.80;99.90
2459;DHT22;1241;50.920;6.936;2022-11-15T14:31:49;14.80;99.90
2459;DHT22;1241;50.920;6.936;2022-11-15T14:34:15;14.80;99.90
2459;DHT22;1241;50.920;6.936;2022-11-15T14:36:40;14.70;99.90
2459;DHT22;1241;50.920;6.936;2022-11-15T14:39:06;14.70;99.90
2459;DHT22;1241;50.920;6.936;2022-11-15T14:41:35;14.70;99.90
2459;DHT22;1241;50.920;6.936;2022-11-15T14:44:04;14.70;99.90
2459;DHT22;1241;50.920;6.936;2022-11-15T14:46:30;14.60;99.90
2459;DHT22;1241;50.920;6.936;2022-11-15T14:48:56;14.60;99.90
2459;DHT22;1241;50.920;6.936;2022-11-15T14:51:22;14.80;99.90
2459;DHT22;1241;50.920;6.936;2022-11-15T14:53:48;14.80;99.90
2459;DHT22;1241;50.920;6.936;2022-11-15T14:56:14;14.70;99.90
2459;DHT22;1241;50.920;6.936;2022-11-15T14:58:42;14.70;99.90
2459;DHT22;1241;50.920;6.936;2022-11-15T15:01:23;14.60;99.90
2459;DHT22;1241;50.920;6.936;2022-11-15T15:03:50;14.70;99.90
2459;DHT22;1241;50.920;6.936;2022-11-15T15:06:21;14.60;99.90
2459;DHT22;1241;50.920;6.936;2022-11-15T15:08:47;14.60;99.90
2459;DHT22;1241;50.920;6.936;2022-11-15T15:11:33;14.60;99.90
2459;DHT22;1241;50.920;6.936;2022-11-15T15:13:59;14.50;99.90
2459;DHT22;1241;50.920;6.936;2022-11-15T15:16:26;14.60;99.90
2459;DHT22;1241;50.920;6.936;2022-11-15T15:18:53;14.60;99.90
2459;DHT22;1241;50.920;6.936;2022-11-15T15:21:22;14.50;99.90
2459;DHT22;1241;50.920;6.936;2022-11-15T15:23:48;14.50;99.90
2459;DHT22;1241;50.920;6.936;2022-11-15T15:26:14;14.50;99.90
2459;DHT22;1241;50.920;6.936;2022-11-15T15:28:40;14.60;99.90
2459;DHT22;1241;50.920;6.936;2022-11-15T15:31:06;14.60;99.90
2459;DHT22;1241;50.920;6.936;2022-11-15T15:33:32;14.50;99.90
2459;DHT22;1241;50.920;6.936;2022-11-15T15:35:58;14.50;99.90
2459;DHT22;1241;50.920;6.936;2022-11-15T15:38:24;14.50;99.90
2459;DHT22;1241;50.920;6.936;2022-11-15T15:40:50;14.40;99.90
2459;DHT22;1241;50.920;6.936;2022-11-15T15:43:16;14.40;99.90
2459;DHT22;1241;50.920;6.936;2022-11-15T15:45:41;14.40;99.90
2459;DHT22;1241;50.920;6.936;2022-11-15T15:48:12;14.30;99.90
2459;DHT22;1241;50.920;6.936;2022-11-15T15:50:38;14.30;99.90
2459;DHT22;1241;50.920;6.936;2022-11-15T15:53:04;14.20;99.90
2459;DHT22;1241;50.920;6.936;2022-11-15T15:55:31;14.20;99.90
2459;DHT22;1241;50.920;6.936;2022-11-15T15:57:57;14.20;99.90
2459;DHT22;1241;50.920;6.936;2022-11-15T16:00:24;14.20;99.90
2459;DHT22;1241;50.920;6.936;2022-11-15T16:02:51;14.20;99.90
2459;DHT22;1241;50.920;6.936;2022-11-15T16:05:17;14.10;99.90
2459;DHT22;1241;50.920;6.936;2022-11-15T16:07:43;14.10;99.90
2459;DHT22;1241;50.920;6.936;2022-11-15T16:10:22;14.10;99.90
2459;DHT22;1241;50.920;6.936;2022-11-15T16:12:50;14.10;99.90
2459;DHT22;1241;50.920;6.936;2022-11-15T16:15:17;14.10;99.90
2459;DHT22;1241;50.920;6.936;2022-11-15T16:17:53;14.10;99.90
2459;DHT22;1241;50.920;6.936;2022-11-15T16:20:41;14.10;99.90
2459;DHT22;1241;50.920;6.936;2022-11-15T16:23:14;14.10;99.90
2459;DHT22;1241;50.920;6.936;2022-11-15T16:25:41;14.10;99.90
2459;DHT22;1241;50.920;6.936;2022-11-15T16:30:44;14.00;99.90
2459;DHT22;1241;50.920;6.936;2022-11-15T16:33:10;14.00;99.90
2459;DHT22;1241;50.920;6.936;2022-11-15T16:35:35;14.00;99.90
2459;DHT22;1241;50.920;6.936;2022-11-15T16:38:01;14.00;99.90
2459;DHT22;1241;50.920;6.936;2022-11-15T16:40:29;14.00;99.90
2459;DHT22;1241;50.920;6.936;2022-11-15T16:42:56;14.00;99.90
2459;DHT22;1241;50.920;6.936;2022-11-15T16:45:23;14.10;99.90
2459;DHT22;1241;50.920;6.936;2022-11-15T16:47:49;14.10;99.90
2459;DHT22;1241;50.920;6.936;2022-11-15T16:50:26;14.00;99.90
2459;DHT22;1241;50.920;6.936;2022-11-15T16:52:54;14.00;99.90
2459;DHT22;1241;50.920;6.936;2022-11-15T16:55:21;14.00;99.90
2459;DHT22;1241;50.920;6.936;2022-11-15T16:57:48;13.90;99.90
2459;DHT22;1241;50.920;6.936;2022-11-15T17:00:15;13.90;99.90
2459;DHT22;1241;50.920;6.936;2022-11-15T17:02:46;13.90;99.90
2459;DHT22;1241;50.920;6.936;2022-11-15T17:05:13;13.90;99.90
2459;DHT22;1241;50.920;6.936;2022-11-15T17:07:39;14.00;99.90
2459;DHT22;1241;50.920;6.936;2022-11-15T17:10:06;14.00;99.90
2459;DHT22;1241;50.920;6.936;2022-11-15T17:12:33;14.00;99.90
2459;DHT22;1241;50.920;6.936;2022-11-15T17:14:59;14.00;99.90
2459;DHT22;1241;50.920;6.936;2022-11-15T17:17:25;13.90;99.90
2459;DHT22;1241;50.920;6.936;2022-11-15T17:19:52;14.00;99.90
2459;DHT22;1241;50.920;6.936;2022-11-15T17:22:18;14.00;99.90
2459;DHT22;1241;50.920;6.936;2022-11-15T17:24:44;14.00;99.90
2459;DHT22;1241;50.920;6.936;2022-11-15T17:27:10;14.10;99.90
2459;DHT22;1241;50.920;6.936;2022-11-15T17:29:36;14.10;99.90
2459;DHT22;1241;50.920;6.936;2022-11-15T17:32:01;14.10;99.90
2459;DHT22;1241;50.920;6.936;2022-11-15T17:34:27;14.00;99.90
2459;DHT22;1241;50.920;6.936;2022-11-15T17:36:53;14.00;99.90
2459;DHT22;1241;50.920;6.936;2022-11-15T17:39:18;14.00;99.90
2459;DHT22;1241;50.920;6.936;2022-11-15T17:41:46;14.00;99.90
2459;DHT22;1241;50.920;6.936;2022-11-15T17:44:12;13.90;99.90
2459;DHT22;1241;50.920;6.936;2022-11-15T17:46:37;13.90;99.90
2459;DHT22;1241;50.920;6.936;2022-11-15T17:49:05;13.80;99.90
2459;DHT22;1241;50.920;6.936;2022-11-15T17:51:31;13.80;99.90
2459;DHT22;1241;50.920;6.936;2022-11-15T17:53:57;13.70;99.90
2459;DHT22;1241;50.920;6.936;2022-11-15T17:56:25;13.70;99.90
2459;DHT22;1241;50.920;6.936;2022-11-15T17:58:53;13.60;99.90
2459;DHT22;1241;50.920;6.936;2022-11-15T18:03:48;13.50;99.90
2459;DHT22;1241;50.920;6.936;2022-11-15T18:06:14;13.50;99.90
2459;DHT22;1241;50.920;6.936;2022-11-15T18:08:42;13.60;99.90
2459;DHT22;1241;50.920;6.936;2022-11-15T18:11:45;13.50;99.90
2459;DHT22;1241;50.920;6.936;2022-11-15T18:14:14;13.50;99.90
2459;DHT22;1241;50.920;6.936;2022-11-15T18:16:40;13.40;99.90
2459;DHT22;1241;50.920;6.936;2022-11-15T18:19:07;13.30;99.90
2459;DHT22;1241;50.920;6.936;2022-11-15T18:21:43;13.10;99.90
2459;DHT22;1241;50.920;6.936;2022-11-15T18:24:34;13.10;99.90
2459;DHT22;1241;50.920;6.936;2022-11-15T18:27:03;13.10;99.90
2459;DHT22;1241;50.920;6.936;2022-11-15T18:29:29;13.10;99.90
2459;DHT22;1241;50.920;6.936;2022-11-15T18:31:55;13.00;99.90
2459;DHT22;1241;50.920;6.936;2022-11-15T18:34:26;12.90;99.90
2459;DHT22;1241;50.920;6.936;2022-11-15T18:36:58;12.90;99.90
2459;DHT22;1241;50.920;6.936;2022-11-15T18:39:24;12.80;99.90
2459;DHT22;1241;50.920;6.936;2022-11-15T18:41:49;12.80;99.90
2459;DHT22;1241;50.920;6.936;2022-11-15T18:44:16;12.80;99.90
2459;DHT22;1241;50.920;6.936;2022-11-15T18:46:42;12.70;99.90
2459;DHT22;1241;50.920;6.936;2022-11-15T18:49:10;12.70;99.90
2459;DHT22;1241;50.920;6.936;2022-11-15T18:51:37;12.80;99.90
2459;DHT22;1241;50.920;6.936;2022-11-15T18:54:07;12.70;99.90
2459;DHT22;1241;50.920;6.936;2022-11-15T18:56:34;12.70;99.90
2459;DHT22;1241;50.920;6.936;2022-11-15T18:59:00;12.60;99.90
2459;DHT22;1241;50.920;6.936;2022-11-15T19:01:32;12.60;99.90
2459;DHT22;1241;50.920;6.936;2022-11-15T19:04:03;12.50;99.90
2459;DHT22;1241;50.920;6.936;2022-11-15T19:06:29;12.50;99.90
2459;DHT22;1241;50.920;6.936;2022-11-15T19:08:57;12.40;99.90
2459;DHT22;1241;50.920;6.936;2022-11-15T19:11:31;12.30;99.90
2459;DHT22;1241;50.920;6.936;2022-11-15T19:14:00;12.20;99.90
2459;DHT22;1241;50.920;6.936;2022-11-15T19:16:29;12.20;99.90
2459;DHT22;1241;50.920;6.936;2022-11-15T19:18:57;12.20;99.90
2459;DHT22;1241;50.920;6.936;2022-11-15T19:21:23;12.20;99.90
2459;DHT22;1241;50.920;6.936;2022-11-15T19:23:49;12.20;99.90
2459;DHT22;1241;50.920;6.936;2022-11-15T19:26:17;12.20;99.90
2459;DHT22;1241;50.920;6.936;2022-11-15T19:28:43;12.10;99.90
2459;DHT22;1241;50.920;6.936;2022-11-15T19:31:15;12.10;99.90